Terminal Aerodrome Forecast
Issued by NWS Cleveland, OH

Home | Current Version | Previous Version | Graphics & Text | Print | Product List | Glossary On
Versions: 1 2 3 4 5 6 7 8 9 10 11 12 13 14 15 16 17 18
246
FTUS41 KCLE 021728
TAFYNG
TAF
KYNG 021728Z 0218/0318 24010KT P6SM OVC025
     FM021900 27010G15KT P6SM OVC025
     FM022300 27010KT P6SM OVC025
     FM030300 27010KT P6SM OVC015
     FM031000 28007KT 6SM HZ OVC007
     FM031600 28009KT P6SM OVC015=

USA.gov is the U.S. government's official web portal to all federal, state and local government web resources and services.